Time;durP1;ratioP1;P1;durP2;ratioP2;P2;SDS_P1;SDS_P2;PMS_P1;PMS_P2;Temp;Humidity;BMP_temperature;BMP_pressure;BME280_temperature;BME280_humidity;BME280_pressure;Samples;Min_cycle;Max_cycle;Signal;HPM_P1;HPM_P2
2022/01/17 00:01:18;;;;;;;4.32;1.10;;;6.00;99.90;;;;;;4966630;28;20027;-75
2022/01/17 00:03:44;;;;;;;7.43;1.35;;;6.00;99.90;;;;;;4966122;28;20461;-76
2022/01/17 00:06:11;;;;;;;13.20;1.63;;;6.00;99.90;;;;;;4966320;29;20054;-76
2022/01/17 00:08:41;;;;;;;8.75;1.05;;;6.00;99.90;;;;;;4965160;29;20023;-76
2022/01/17 00:11:08;;;;;;;9.95;1.75;;;6.00;99.90;;;;;;4965894;28;20051;-78
2022/01/17 00:13:33;;;;;;;2.70;0.80;;;6.10;99.90;;;;;;4966370;28;20038;-79
2022/01/17 00:16:12;;;;;;;10.00;0.63;;;6.10;99.90;;;;;;4965019;29;20031;-81
2022/01/17 00:21:05;;;;;;;11.73;1.20;;;6.10;99.90;;;;;;4966199;28;20031;-77
2022/01/17 00:23:32;;;;;;;15.98;1.08;;;6.10;99.90;;;;;;4966235;28;20027;-76
2022/01/17 00:25:59;;;;;;;2.95;1.10;;;6.10;99.90;;;;;;4965553;28;21555;-76
2022/01/17 00:28:24;;;;;;;2.33;1.15;;;6.10;99.90;;;;;;4964438;29;20089;-77
2022/01/17 00:30:50;;;;;;;1.77;0.80;;;6.10;99.90;;;;;;4965709;29;20035;-76
2022/01/17 00:33:16;;;;;;;10.18;0.88;;;6.10;99.90;;;;;;4964367;29;20057;-79
2022/01/17 00:35:43;;;;;;;12.85;1.27;;;6.10;99.90;;;;;;4964396;29;20805;-78
2022/01/17 00:38:11;;;;;;;6.13;0.85;;;6.10;99.90;;;;;;4964392;29;20035;-74
2022/01/17 00:40:37;;;;;;;6.15;1.67;;;6.10;99.90;;;;;;4965630;28;20384;-81
2022/01/17 00:43:02;;;;;;;17.20;1.48;;;6.10;99.90;;;;;;4964504;29;20028;-77
2022/01/17 00:45:29;;;;;;;11.15;1.98;;;6.10;99.90;;;;;;4965924;29;20027;-79
2022/01/17 00:47:57;;;;;;;14.07;1.17;;;6.10;99.90;;;;;;4964528;29;20121;-77
2022/01/17 00:50:25;;;;;;;5.65;1.52;;;6.10;99.90;;;;;;4965990;28;20058;-79
2022/01/17 00:52:51;;;;;;;6.68;1.50;;;6.10;99.90;;;;;;4965931;28;20058;-77
2022/01/17 00:55:17;;;;;;;14.52;2.22;;;6.10;99.90;;;;;;4964280;29;20035;-78
2022/01/17 00:57:43;;;;;;;7.35;1.45;;;6.10;99.90;;;;;;4965402;28;20034;-77
2022/01/17 01:00:10;;;;;;;9.18;1.52;;;6.10;99.90;;;;;;4965893;29;20063;-78
2022/01/17 01:02:36;;;;;;;4.22;0.63;;;6.20;99.90;;;;;;4965770;28;20540;-75
2022/01/17 01:05:04;;;;;;;11.38;1.10;;;6.20;99.90;;;;;;4964225;29;20024;-77
2022/01/17 01:07:30;;;;;;;12.82;1.83;;;6.20;99.90;;;;;;4965745;28;20035;-76
2022/01/17 01:10:04;;;;;;;8.23;1.73;;;6.20;99.90;;;;;;4968158;28;20038;-76
2022/01/17 01:12:29;;;;;;;8.43;2.20;;;6.20;99.90;;;;;;4969079;28;20032;-77
2022/01/17 01:14:56;;;;;;;4.95;0.95;;;6.20;99.90;;;;;;4969556;29;20077;-80
2022/01/17 01:17:48;;;;;;;14.80;1.10;;;6.20;99.90;;;;;;4967828;29;20033;-79
2022/01/17 01:28:28;;;;;;;;;;;6.30;99.90;;;;;;4976648;28;20066;-78
2022/01/17 01:30:56;;;;;;;21.33;2.20;;;6.30;99.90;;;;;;4977710;28;19910;-81
2022/01/17 01:33:27;;;;;;;8.15;1.20;;;6.30;99.90;;;;;;4967357;29;20050;-75
2022/01/17 01:36:00;;;;;;;8.30;1.90;;;6.30;99.90;;;;;;4967627;29;20027;-75
2022/01/17 01:38:27;;;;;;;11.70;1.65;;;6.30;99.90;;;;;;4969286;28;20027;-75
2022/01/17 01:40:53;;;;;;;6.75;1.27;;;6.30;99.90;;;;;;4968548;28;20028;-77
2022/01/17 01:43:18;;;;;;;5.15;1.73;;;6.30;99.90;;;;;;4969169;28;20046;-75
2022/01/17 01:45:49;;;;;;;10.75;1.60;;;6.30;99.90;;;;;;4968849;29;20064;-76
2022/01/17 01:48:18;;;;;;;14.43;1.40;;;6.30;99.90;;;;;;4968645;28;20023;-78
2022/01/17 01:50:44;;;;;;;13.40;1.80;;;6.30;99.90;;;;;;4967436;29;20031;-75
2022/01/17 01:53:10;;;;;;;6.45;1.85;;;6.30;99.90;;;;;;4966971;29;20121;-76
2022/01/17 01:55:35;;;;;;;10.30;1.52;;;6.30;99.90;;;;;;4968516;29;20074;-74
2022/01/17 01:58:01;;;;;;;2.13;1.00;;;6.30;99.90;;;;;;4968610;29;20066;-74
2022/01/17 02:00:27;;;;;;;1.55;0.65;;;6.30;99.90;;;;;;4966963;29;20038;-77
2022/01/17 02:02:54;;;;;;;18.38;2.35;;;6.40;99.90;;;;;;4967147;29;20027;-75
2022/01/17 02:05:20;;;;;;;5.00;0.85;;;6.30;99.90;;;;;;4968695;28;20036;-75
2022/01/17 02:07:45;;;;;;;11.93;1.33;;;6.30;99.90;;;;;;4967899;29;20035;-76
2022/01/17 02:10:11;;;;;;;2.53;0.93;;;6.30;99.90;;;;;;4966393;29;20019;-75
2022/01/17 02:12:37;;;;;;;19.33;1.45;;;6.30;99.90;;;;;;4967906;28;20039;-74
2022/01/17 02:15:04;;;;;;;3.80;0.93;;;6.30;99.90;;;;;;4967792;29;20443;-78
2022/01/17 02:17:33;;;;;;;12.05;0.65;;;6.30;99.90;;;;;;4968102;28;20031;-79
2022/01/17 02:20:07;;;;;;;0.85;0.77;;;6.30;99.90;;;;;;4964591;28;20027;-76
2022/01/17 02:22:34;;;;;;;8.00;1.95;;;6.30;99.90;;;;;;4967441;29;20027;-77
2022/01/17 02:24:59;;;;;;;5.40;1.42;;;6.30;99.90;;;;;;4966231;28;20058;-74
2022/01/17 02:27:26;;;;;;;13.18;1.23;;;6.30;99.90;;;;;;4947541;29;20028;-79
2022/01/17 02:29:51;;;;;;;3.53;1.20;;;6.30;99.90;;;;;;4948937;29;20070;-74
2022/01/17 02:32:17;;;;;;;11.40;1.42;;;6.30;99.90;;;;;;4967542;29;20504;-74
2022/01/17 02:34:43;;;;;;;11.02;1.50;;;6.30;99.90;;;;;;4967652;29;20637;-76
2022/01/17 02:37:10;;;;;;;4.72;1.13;;;6.30;99.90;;;;;;4967589;28;20050;-74
2022/01/17 02:39:36;;;;;;;5.72;1.17;;;6.30;99.90;;;;;;4967744;28;20106;-75
2022/01/17 02:42:03;;;;;;;10.32;2.15;;;6.30;99.90;;;;;;4966439;29;20575;-73
2022/01/17 02:44:30;;;;;;;7.00;1.15;;;6.30;99.90;;;;;;4966016;29;20034;-74
2022/01/17 02:46:55;;;;;;;6.68;1.92;;;6.30;99.90;;;;;;4966353;29;20055;-75
2022/01/17 02:49:22;;;;;;;10.55;1.42;;;6.30;99.90;;;;;;4966391;29;20091;-76
2022/01/17 02:51:48;;;;;;;10.20;1.35;;;6.30;99.90;;;;;;4967195;28;20039;-74
2022/01/17 02:54:17;;;;;;;23.55;2.47;;;6.30;99.90;;;;;;4967665;28;20015;-75
2022/01/17 02:56:43;;;;;;;4.15;1.08;;;6.30;99.90;;;;;;4966902;28;20031;-73
2022/01/17 02:59:08;;;;;;;4.40;1.15;;;6.30;99.90;;;;;;4967587;29;20027;-74
2022/01/17 03:01:34;;;;;;;9.18;1.35;;;6.30;99.90;;;;;;4953382;29;20036;-75
2022/01/17 03:04:01;;;;;;;3.15;1.33;;;6.40;99.90;;;;;;4947739;29;20114;-74
2022/01/17 03:06:28;;;;;;;5.43;0.80;;;6.30;99.90;;;;;;4948100;29;20036;-75
2022/01/17 03:08:55;;;;;;;3.97;0.70;;;6.30;99.90;;;;;;4948301;29;20032;-73
2022/01/17 03:11:26;;;;;;;5.70;1.13;;;6.30;99.90;;;;;;4946320;29;20047;-74
2022/01/17 03:13:53;;;;;;;7.75;1.25;;;6.30;99.90;;;;;;4948077;29;20027;-77
2022/01/17 03:16:30;;;;;;;17.90;1.40;;;6.30;99.90;;;;;;4948137;29;20035;-77
2022/01/17 03:18:57;;;;;;;29.98;2.28;;;6.30;99.90;;;;;;4947629;29;20086;-76
2022/01/17 03:21:25;;;;;;;13.95;1.92;;;6.30;99.90;;;;;;4962642;28;20548;-75
2022/01/17 03:23:53;;;;;;;8.18;1.60;;;6.30;99.90;;;;;;4958075;29;20035;-74
2022/01/17 03:26:18;;;;;;;15.07;1.00;;;6.30;99.90;;;;;;4965227;29;20054;-76
2022/01/17 03:28:44;;;;;;;0.90;0.68;;;6.30;99.90;;;;;;4965653;29;20031;-75
2022/01/17 03:31:10;;;;;;;5.70;2.33;;;6.30;99.90;;;;;;4965284;29;20039;-75
2022/01/17 03:33:37;;;;;;;9.50;1.83;;;6.30;99.90;;;;;;4964299;28;20062;-74
2022/01/17 03:36:04;;;;;;;28.85;2.95;;;6.30;99.90;;;;;;4966718;28;20027;-73
2022/01/17 03:38:31;;;;;;;15.23;1.65;;;6.30;99.90;;;;;;4966678;28;20051;-76
2022/01/17 03:40:59;;;;;;;15.07;2.33;;;6.20;99.90;;;;;;4966398;28;20490;-78
2022/01/17 03:43:26;;;;;;;12.68;1.30;;;6.20;99.90;;;;;;4966874;28;20503;-75
2022/01/17 03:45:53;;;;;;;8.32;0.93;;;6.20;99.90;;;;;;4965534;29;20055;-74
2022/01/17 03:48:19;;;;;;;6.32;1.13;;;6.20;99.90;;;;;;4966573;28;20027;-75
2022/01/17 03:50:46;;;;;;;8.50;1.65;;;6.20;99.90;;;;;;4965755;29;20035;-73
2022/01/17 03:53:12;;;;;;;6.70;1.40;;;6.20;99.90;;;;;;4966429;28;20050;-75
2022/01/17 03:55:38;;;;;;;14.70;1.23;;;6.20;99.90;;;;;;4965308;29;20031;-74
2022/01/17 03:58:06;;;;;;;7.18;1.15;;;6.20;99.90;;;;;;4966248;28;20032;-73
2022/01/17 04:00:41;;;;;;;13.38;2.05;;;6.20;99.90;;;;;;4966074;28;20027;-75
2022/01/17 04:03:08;;;;;;;12.55;1.70;;;6.20;99.90;;;;;;4971821;28;20094;-74
2022/01/17 04:05:34;;;;;;;8.85;0.82;;;6.20;99.90;;;;;;4970251;28;20042;-80
2022/01/17 04:08:03;;;;;;;5.28;1.33;;;6.20;99.90;;;;;;4964843;29;20031;-79
2022/01/17 04:10:29;;;;;;;15.10;2.08;;;6.20;99.90;;;;;;4965018;29;20035;-75
2022/01/17 04:13:01;;;;;;;5.90;0.65;;;6.20;99.90;;;;;;4964266;29;20036;-76
2022/01/17 04:15:28;;;;;;;3.30;1.27;;;6.20;99.90;;;;;;4964910;29;20388;-78
2022/01/17 04:17:56;;;;;;;1.63;0.90;;;6.20;99.90;;;;;;4966472;28;20023;-74
2022/01/17 04:20:26;;;;;;;1.85;0.90;;;6.20;99.90;;;;;;4965096;28;20027;-76
2022/01/17 04:22:55;;;;;;;2.80;0.80;;;6.20;99.90;;;;;;4964724;29;20094;-78
2022/01/17 04:25:24;;;;;;;8.50;2.00;;;6.20;99.90;;;;;;4966327;28;20023;-75
2022/01/17 04:27:50;;;;;;;5.35;1.30;;;6.20;99.90;;;;;;4966022;28;20063;-74
2022/01/17 04:30:17;;;;;;;5.05;1.13;;;6.20;99.90;;;;;;4964412;29;20075;-73
2022/01/17 04:32:44;;;;;;;5.18;1.15;;;6.20;99.90;;;;;;4965869;28;20115;-75
2022/01/17 04:35:11;;;;;;;12.10;1.42;;;6.20;99.90;;;;;;4965743;28;20023;-72
2022/01/17 04:37:37;;;;;;;12.85;2.33;;;6.20;99.90;;;;;;4980157;28;20375;-73
2022/01/17 04:40:04;;;;;;;14.85;3.35;;;6.20;99.90;;;;;;4966045;29;20079;-74
2022/01/17 04:42:30;;;;;;;1.73;0.98;;;6.30;99.90;;;;;;4964058;29;20126;-74
2022/01/17 04:45:07;;;;;;;6.93;1.95;;;6.30;99.90;;;;;;4968580;28;20396;-71
2022/01/17 04:47:36;;;;;;;11.50;2.10;;;6.20;99.90;;;;;;4969759;29;20039;-74
2022/01/17 04:50:03;;;;;;;6.32;1.65;;;6.30;99.90;;;;;;4968012;29;20033;-74
2022/01/17 04:52:29;;;;;;;9.60;0.98;;;6.30;99.90;;;;;;4969679;28;20042;-73
2022/01/17 04:55:00;;;;;;;3.40;0.90;;;6.30;99.90;;;;;;4969484;28;20034;-73
2022/01/17 04:57:26;;;;;;;6.10;1.52;;;6.30;99.90;;;;;;4969481;28;20478;-76
2022/01/17 04:59:52;;;;;;;11.18;2.35;;;6.30;99.90;;;;;;4968364;29;20023;-74
2022/01/17 05:02:18;;;;;;;18.10;2.83;;;6.30;99.90;;;;;;4969386;29;20079;-76
2022/01/17 05:04:45;;;;;;;14.68;2.13;;;6.30;99.90;;;;;;4968643;28;20029;-74
2022/01/17 05:07:11;;;;;;;3.75;0.95;;;6.30;99.90;;;;;;4969365;28;20027;-74
2022/01/17 05:09:41;;;;;;;13.02;1.35;;;6.30;99.90;;;;;;4969294;28;20027;-74
2022/01/17 05:12:08;;;;;;;7.72;1.75;;;6.30;99.90;;;;;;4967967;29;20043;-76
2022/01/17 05:14:34;;;;;;;32.20;2.75;;;6.30;99.90;;;;;;4969533;28;20031;-74
2022/01/17 05:17:20;;;;;;;9.48;1.42;;;6.30;99.90;;;;;;4967778;29;20066;-76
2022/01/17 05:19:49;;;;;;;2.80;0.98;;;6.30;99.90;;;;;;4969327;28;20097;-74
2022/01/17 05:22:19;;;;;;;4.00;1.00;;;6.30;99.90;;;;;;4969167;29;20480;-72
2022/01/17 05:24:45;;;;;;;4.40;1.02;;;6.30;99.90;;;;;;4968795;28;20043;-74
2022/01/17 05:27:12;;;;;;;10.57;2.17;;;6.30;99.90;;;;;;4967940;29;20023;-75
2022/01/17 05:29:38;;;;;;;8.65;1.90;;;6.30;99.90;;;;;;4967784;29;20058;-77
2022/01/17 05:32:05;;;;;;;10.55;2.00;;;6.30;99.90;;;;;;4968143;28;20043;-73
2022/01/17 05:34:33;;;;;;;7.43;0.95;;;6.30;99.90;;;;;;4967782;29;20063;-73
2022/01/17 05:37:04;;;;;;;2.05;1.10;;;6.30;99.90;;;;;;4967612;29;20031;-74
2022/01/17 05:39:29;;;;;;;8.23;1.30;;;6.30;99.90;;;;;;4965016;29;20062;-75
2022/01/17 05:41:55;;;;;;;10.18;1.73;;;6.30;99.90;;;;;;4967745;29;20038;-75
2022/01/17 05:44:22;;;;;;;12.40;1.45;;;6.30;99.90;;;;;;4968860;29;20031;-72
2022/01/17 05:46:48;;;;;;;15.80;2.08;;;6.30;99.90;;;;;;4968055;29;20031;-78
2022/01/17 05:49:14;;;;;;;9.82;1.67;;;6.30;99.90;;;;;;4968484;28;20074;-73
2022/01/17 05:51:39;;;;;;;6.65;1.55;;;6.30;99.90;;;;;;4967250;29;20122;-74
2022/01/17 05:54:05;;;;;;;5.00;1.55;;;6.30;99.90;;;;;;4968449;28;20035;-74
2022/01/17 05:56:31;;;;;;;7.10;1.90;;;6.30;99.90;;;;;;4966750;28;20034;-73
2022/01/17 05:58:56;;;;;;;7.75;1.20;;;6.30;99.90;;;;;;4968733;29;20038;-75
2022/01/17 06:01:22;;;;;;;4.18;1.13;;;6.30;99.90;;;;;;4968233;29;20038;-76
2022/01/17 06:03:48;;;;;;;4.70;0.93;;;6.30;99.90;;;;;;4966562;29;20380;-74
2022/01/17 06:06:14;;;;;;;11.07;2.15;;;6.30;99.90;;;;;;4964816;28;20028;-73
2022/01/17 06:08:39;;;;;;;1.98;0.73;;;6.30;99.90;;;;;;4964237;29;20069;-74
2022/01/17 06:11:05;;;;;;;7.15;2.58;;;6.30;99.90;;;;;;4967280;29;20031;-73
2022/01/17 06:13:31;;;;;;;7.95;1.88;;;6.30;99.90;;;;;;4965787;29;20039;-74
2022/01/17 06:15:58;;;;;;;3.65;1.25;;;6.30;99.90;;;;;;4964604;29;20078;-74
2022/01/17 06:18:25;;;;;;;10.90;1.67;;;6.30;99.90;;;;;;4967888;28;20065;-76
2022/01/17 06:20:52;;;;;;;15.38;2.75;;;6.20;99.90;;;;;;4966701;28;20031;-76
2022/01/17 06:23:18;;;;;;;7.40;2.85;;;6.30;99.90;;;;;;4966818;29;20043;-75
2022/01/17 06:25:47;;;;;;;1.88;1.17;;;6.30;99.90;;;;;;4966167;29;20035;-73
2022/01/17 06:28:13;;;;;;;2.47;1.33;;;6.30;99.90;;;;;;4982043;28;20031;-73
2022/01/17 06:30:39;;;;;;;7.32;1.38;;;6.30;99.90;;;;;;4966456;29;20041;-75
2022/01/17 06:33:04;;;;;;;2.85;1.67;;;6.30;99.90;;;;;;4967254;29;20051;-73
2022/01/17 06:35:32;;;;;;;6.30;1.10;;;6.30;99.90;;;;;;4967354;29;20023;-78
2022/01/17 06:37:58;;;;;;;12.80;1.45;;;6.20;99.90;;;;;;4974674;28;20063;-73
2022/01/17 06:40:24;;;;;;;3.38;1.60;;;6.20;99.90;;;;;;4965508;29;20035;-74
2022/01/17 06:42:50;;;;;;;4.03;1.33;;;6.20;99.90;;;;;;4967515;28;20070;-75
2022/01/17 06:45:18;;;;;;;9.32;1.58;;;6.20;99.90;;;;;;4967364;28;20085;-73
2022/01/17 06:47:44;;;;;;;10.57;1.75;;;6.10;99.90;;;;;;4967635;28;20546;-76
2022/01/17 06:50:11;;;;;;;9.25;2.72;;;6.10;99.90;;;;;;4967440;28;20066;-73
2022/01/17 06:52:36;;;;;;;6.53;2.08;;;6.10;99.90;;;;;;4967608;28;20039;-74
2022/01/17 06:55:02;;;;;;;8.60;2.22;;;6.10;99.90;;;;;;4966480;29;20050;-77
2022/01/17 06:57:28;;;;;;;6.57;2.10;;;6.10;99.90;;;;;;4966204;29;20245;-73
2022/01/17 06:59:55;;;;;;;14.18;2.78;;;6.10;99.90;;;;;;4967398;29;20400;-78
2022/01/17 07:02:20;;;;;;;4.55;1.40;;;6.00;99.90;;;;;;4966867;28;20735;-79
2022/01/17 07:04:46;;;;;;;8.30;1.20;;;6.00;99.90;;;;;;4965890;29;20031;-76
2022/01/17 07:07:12;;;;;;;9.95;2.75;;;6.00;99.90;;;;;;4967136;28;20058;-73
2022/01/17 07:09:38;;;;;;;13.63;2.47;;;6.00;99.90;;;;;;4966947;29;20043;-72
2022/01/17 07:12:05;;;;;;;10.88;2.45;;;6.00;99.90;;;;;;4967157;28;20510;-75
2022/01/17 07:14:32;;;;;;;8.13;1.92;;;6.00;99.90;;;;;;4967221;28;20083;-77
2022/01/17 07:16:58;;;;;;;4.60;1.48;;;6.00;99.90;;;;;;4965474;29;20065;-72
2022/01/17 07:19:25;;;;;;;9.10;1.67;;;6.00;99.90;;;;;;4965615;28;20114;-76
2022/01/17 07:21:54;;;;;;;4.22;1.48;;;6.10;99.90;;;;;;4967119;28;20492;-78
2022/01/17 07:24:19;;;;;;;22.83;2.85;;;6.10;99.90;;;;;;4966774;28;20027;-74
2022/01/17 07:26:45;;;;;;;8.77;2.78;;;6.10;99.90;;;;;;4965136;28;20078;-74
2022/01/17 07:29:11;;;;;;;7.80;1.38;;;6.10;99.90;;;;;;4966632;29;20141;-77
2022/01/17 07:31:37;;;;;;;9.70;2.00;;;6.10;99.90;;;;;;4965347;28;20054;-77
2022/01/17 07:34:03;;;;;;;15.10;2.47;;;6.10;99.90;;;;;;4972851;28;20444;-73
2022/01/17 07:36:30;;;;;;;6.70;1.55;;;6.10;99.90;;;;;;4966027;28;20024;-74
2022/01/17 07:38:57;;;;;;;10.45;2.40;;;6.20;99.90;;;;;;4966885;28;20031;-73
2022/01/17 07:41:25;;;;;;;9.65;1.90;;;6.20;99.90;;;;;;4966890;28;20023;-76
2022/01/17 07:43:52;;;;;;;7.47;2.35;;;6.20;99.90;;;;;;4966160;28;20055;-72
2022/01/17 07:46:23;;;;;;;19.70;3.15;;;6.30;99.90;;;;;;4963186;28;20023;-72
2022/01/17 07:49:09;;;;;;;14.82;2.05;;;6.30;99.90;;;;;;4958079;28;20050;-74
2022/01/17 07:51:35;;;;;;;17.60;3.75;;;6.30;99.90;;;;;;4980337;28;20095;-73
2022/01/17 07:54:00;;;;;;;4.65;1.90;;;6.40;99.90;;;;;;4965375;29;20092;-75
2022/01/17 07:56:26;;;;;;;10.90;2.35;;;6.40;99.90;;;;;;4964304;29;20036;-74
2022/01/17 07:58:53;;;;;;;24.02;2.15;;;6.40;99.90;;;;;;4962571;29;20035;-72
2022/01/17 08:01:19;;;;;;;13.43;3.25;;;6.40;99.90;;;;;;4961815;29;20035;-73
2022/01/17 08:03:45;;;;;;;26.80;3.05;;;6.50;99.90;;;;;;4965676;28;20607;-73
2022/01/17 08:06:11;;;;;;;8.35;1.60;;;6.50;99.90;;;;;;4964586;28;20054;-74
2022/01/17 08:08:38;;;;;;;13.55;2.13;;;6.50;99.90;;;;;;4964982;28;20035;-75
2022/01/17 08:11:04;;;;;;;13.50;2.10;;;6.60;99.90;;;;;;4964566;28;20024;-77
2022/01/17 08:13:32;;;;;;;11.50;2.63;;;6.70;99.90;;;;;;4965426;28;20082;-73
2022/01/17 08:16:03;;;;;;;11.50;1.92;;;6.70;99.90;;;;;;4964052;29;20099;-76
2022/01/17 08:18:32;;;;;;;13.02;2.35;;;6.70;99.90;;;;;;4962515;29;20042;-73
2022/01/17 08:20:59;;;;;;;4.85;1.23;;;6.80;99.90;;;;;;4964847;29;20062;-74
2022/01/17 08:23:24;;;;;;;21.48;2.92;;;6.80;99.90;;;;;;4979759;28;20046;-75
2022/01/17 08:25:56;;;;;;;32.33;3.28;;;6.80;99.90;;;;;;4964320;28;20031;-73
2022/01/17 08:28:27;;;;;;;18.02;2.33;;;6.80;99.90;;;;;;4965160;28;20143;-73
2022/01/17 08:30:59;;;;;;;3.78;2.08;;;6.90;99.90;;;;;;4959780;29;20039;-76
2022/01/17 08:33:24;;;;;;;16.15;2.97;;;6.90;99.90;;;;;;4963197;29;20079;-72
2022/01/17 08:35:50;;;;;;;12.63;3.70;;;6.90;99.90;;;;;;4966148;29;20027;-72
2022/01/17 08:38:17;;;;;;;12.15;2.30;;;6.90;99.90;;;;;;4964624;29;20031;-76
2022/01/17 08:40:42;;;;;;;19.58;3.40;;;7.00;99.90;;;;;;4963744;29;20856;-72
2022/01/17 08:43:08;;;;;;;40.70;4.38;;;7.00;99.90;;;;;;4964533;29;20159;-71
2022/01/17 08:45:34;;;;;;;8.60;2.25;;;7.10;99.90;;;;;;4965682;29;20086;-73
2022/01/17 08:48:00;;;;;;;22.52;4.35;;;7.10;99.90;;;;;;4963702;29;20031;-73
2022/01/17 08:50:27;;;;;;;20.48;3.72;;;7.10;99.90;;;;;;4965386;29;20039;-73
2022/01/17 08:52:55;;;;;;;13.82;2.40;;;7.20;99.90;;;;;;4979417;28;20062;-72
2022/01/17 08:55:22;;;;;;;20.67;4.32;;;7.20;99.90;;;;;;4965026;28;20106;-73
2022/01/17 08:57:48;;;;;;;25.08;3.35;;;7.30;99.90;;;;;;4963676;28;20368;-73
2022/01/17 09:00:18;;;;;;;13.32;3.10;;;7.40;99.90;;;;;;4963300;29;20504;-75
2022/01/17 09:02:46;;;;;;;12.70;2.83;;;7.40;99.90;;;;;;4958762;28;20031;-73
2022/01/17 09:05:33;;;;;;;15.07;4.35;;;7.40;99.90;;;;;;4961303;29;20098;-74
2022/01/17 09:08:00;;;;;;;11.57;3.28;;;7.40;99.90;;;;;;4960533;29;20087;-77
2022/01/17 09:10:26;;;;;;;26.17;2.83;;;7.50;99.90;;;;;;4964630;28;20051;-74
2022/01/17 09:12:54;;;;;;;11.65;3.25;;;7.50;99.90;;;;;;4964667;29;20055;-75
2022/01/17 09:15:20;;;;;;;25.90;5.60;;;7.50;99.90;;;;;;4965376;28;20023;-75
2022/01/17 09:17:46;;;;;;;14.98;2.10;;;7.50;99.90;;;;;;4960846;29;20042;-74
2022/01/17 09:20:11;;;;;;;10.07;2.45;;;7.50;99.90;;;;;;4945941;29;20028;-75
2022/01/17 09:22:37;;;;;;;34.13;3.15;;;7.60;99.90;;;;;;4959073;29;20031;-78
2022/01/17 09:25:08;;;;;;;11.73;3.88;;;7.60;99.90;;;;;;4963178;29;20480;-74
2022/01/17 09:27:34;;;;;;;8.55;2.38;;;7.70;99.90;;;;;;4963175;28;20038;-80
2022/01/17 09:30:01;;;;;;;13.90;2.72;;;7.70;99.90;;;;;;4963682;28;20035;-74
2022/01/17 09:32:26;;;;;;;8.25;2.90;;;7.70;99.90;;;;;;4967600;28;20095;-76
2022/01/17 09:34:52;;;;;;;13.07;2.00;;;7.70;99.90;;;;;;4968361;28;20031;-75
2022/01/17 09:37:18;;;;;;;9.27;3.25;;;7.80;99.90;;;;;;4963376;28;20044;-74
2022/01/17 09:39:43;;;;;;;21.88;2.75;;;7.80;99.90;;;;;;4963230;29;20039;-75
2022/01/17 09:42:09;;;;;;;15.90;3.55;;;7.90;99.90;;;;;;4976298;28;20373;-78
2022/01/17 09:44:37;;;;;;;18.83;3.92;;;7.90;99.90;;;;;;4949064;29;20084;-78
2022/01/17 09:47:07;;;;;;;14.55;4.25;;;8.00;99.90;;;;;;4949167;29;20027;-85
2022/01/17 09:49:40;;;;;;;21.95;4.63;;;8.10;99.90;;;;;;4960258;29;20020;-76
2022/01/17 09:52:25;;;;;;;12.50;2.67;;;8.20;99.90;;;;;;4964354;29;20055;-73
2022/01/17 09:54:53;;;;;;;16.85;2.90;;;8.20;99.90;;;;;;4965672;28;20798;-77
2022/01/17 09:57:20;;;;;;;7.45;2.47;;;8.30;99.90;;;;;;4966341;29;20395;-76
2022/01/17 09:59:46;;;;;;;12.73;2.65;;;8.30;99.90;;;;;;4967267;28;20035;-76
2022/01/17 10:02:13;;;;;;;19.83;3.63;;;8.40;99.90;;;;;;4964532;28;20042;-75
2022/01/17 10:04:40;;;;;;;11.85;3.05;;;8.40;99.90;;;;;;4967317;28;20086;-76
2022/01/17 10:07:07;;;;;;;12.10;2.70;;;8.30;99.90;;;;;;4967447;29;20031;-78
2022/01/17 10:09:35;;;;;;;15.73;3.15;;;8.40;99.90;;;;;;4967730;28;20023;-74
2022/01/17 10:12:03;;;;;;;7.07;1.83;;;8.40;99.90;;;;;;4965608;28;20042;-76
2022/01/17 10:14:38;;;;;;;23.45;3.28;;;8.30;99.90;;;;;;4964295;28;20035;-77
2022/01/17 10:17:16;;;;;;;20.52;2.65;;;8.30;99.90;;;;;;4982104;28;20036;-80
2022/01/17 10:19:43;;;;;;;26.33;2.85;;;8.20;99.90;;;;;;4964807;28;20047;-78
2022/01/17 10:22:20;;;;;;;22.40;3.67;;;8.10;99.90;;;;;;4964774;28;20023;-78
2022/01/17 10:35:37;;;;;;;9.88;3.53;;;8.10;99.90;;;;;;4967017;28;20085;-78
2022/01/17 10:38:16;;;;;;;20.98;2.90;;;8.20;99.90;;;;;;4965660;29;20027;-77
2022/01/17 10:40:57;;;;;;;28.48;4.55;;;8.20;99.90;;;;;;4966439;28;20059;-78
2022/01/17 10:43:35;;;;;;;26.48;4.28;;;8.20;99.90;;;;;;4966998;28;20030;-80
2022/01/17 10:46:07;;;;;;;17.10;3.90;;;8.10;99.90;;;;;;4965845;29;20060;-78
2022/01/17 10:48:40;;;;;;;34.25;4.55;;;8.10;99.90;;;;;;4967183;28;20047;-86
2022/01/17 10:51:07;;;;;;;22.92;3.35;;;8.10;99.90;;;;;;4965639;29;20031;-84
2022/01/17 10:53:33;;;;;;;26.88;4.47;;;8.00;99.90;;;;;;4965638;29;20034;-75
2022/01/17 10:56:08;;;;;;;24.98;4.47;;;8.00;99.90;;;;;;4965154;28;20042;-74
2022/01/17 10:58:36;;;;;;;15.70;4.30;;;8.10;99.90;;;;;;4975148;28;20055;-78
2022/01/17 11:01:12;;;;;;;36.22;4.65;;;8.20;99.90;;;;;;4966607;28;20043;-77
2022/01/17 11:03:40;;;;;;;32.70;4.70;;;8.20;99.90;;;;;;4966316;28;20031;-77
2022/01/17 11:06:22;;;;;;;23.40;4.20;;;8.20;99.90;;;;;;4964441;28;20054;-79
2022/01/17 11:08:51;;;;;;;21.65;3.85;;;8.20;99.90;;;;;;4978951;28;20134;-82
2022/01/17 11:11:22;;;;;;;26.50;3.97;;;8.20;99.90;;;;;;4978240;28;20039;-78
2022/01/17 11:13:50;;;;;;;16.92;3.67;;;8.20;99.90;;;;;;4964878;29;20110;-81
2022/01/17 11:16:20;;;;;;;17.95;4.10;;;8.30;99.90;;;;;;4980885;28;20522;-81
2022/01/17 11:18:57;;;;;;;12.13;3.42;;;8.30;99.90;;;;;;4964982;29;20074;-76
2022/01/17 11:21:26;;;;;;;18.00;3.28;;;8.20;99.90;;;;;;4964572;29;20090;-82
2022/01/17 11:23:53;;;;;;;14.65;3.33;;;8.20;99.90;;;;;;4966333;28;20034;-82
2022/01/17 11:26:19;;;;;;;23.27;3.20;;;8.30;99.90;;;;;;4964549;28;20035;-80
2022/01/17 11:28:47;;;;;;;18.05;3.67;;;8.20;99.90;;;;;;4963118;29;20062;-76
2022/01/17 11:31:15;;;;;;;25.50;3.80;;;8.20;99.90;;;;;;4964745;28;20019;-77
2022/01/17 11:33:42;;;;;;;26.75;3.83;;;8.20;99.90;;;;;;4963878;29;20089;-80
2022/01/17 11:36:08;;;;;;;11.65;2.28;;;8.20;99.90;;;;;;4963842;29;20023;-74
2022/01/17 11:38:41;;;;;;;10.70;1.40;;;8.20;99.90;;;;;;4964675;29;20043;-81
2022/01/17 11:41:25;;;;;;;6.63;1.70;;;8.20;99.90;;;;;;4963835;29;20035;-75
2022/01/17 11:44:02;;;;;;;9.43;3.00;;;8.30;99.90;;;;;;4964486;29;20032;-77
2022/01/17 11:46:33;;;;;;;8.48;1.95;;;8.30;99.90;;;;;;4963321;29;20074;-81
2022/01/17 11:49:06;;;;;;;13.95;2.47;;;8.30;99.90;;;;;;4978733;28;20050;-79
2022/01/17 11:51:45;;;;;;;6.57;1.85;;;8.40;99.90;;;;;;4963019;29;20046;-81
2022/01/17 11:54:23;;;;;;;14.27;3.25;;;8.80;99.90;;;;;;4963739;28;20053;-81
2022/01/17 11:56:53;;;;;;;18.10;1.85;;;9.20;99.90;;;;;;4963650;29;20046;-76
2022/01/17 11:59:39;;;;;;;7.70;2.67;;;9.50;99.90;;;;;;4963879;29;20431;-79
2022/01/17 12:02:21;;;;;;;16.08;1.52;;;9.60;99.90;;;;;;4964060;29;20023;-81
2022/01/17 12:05:10;;;;;;;10.30;1.27;;;9.40;99.90;;;;;;4956777;29;20038;-78
2022/01/17 12:07:56;;;;;;;7.47;1.45;;;9.20;99.90;;;;;;4978483;28;20028;-80
2022/01/17 12:10:28;;;;;;;7.15;1.25;;;9.00;99.90;;;;;;4966028;29;20106;-81
2022/01/17 12:13:13;;;;;;;17.13;2.30;;;8.70;99.90;;;;;;4967799;28;20046;-79
2022/01/17 12:15:59;;;;;;;;;;;8.80;99.90;;;;;;4963658;28;20043;-80
2022/01/17 12:18:30;;;;;;;8.40;1.75;;;8.70;99.90;;;;;;4964581;29;20080;-73
2022/01/17 12:21:28;;;;;;;8.63;1.40;;;8.60;99.90;;;;;;4964561;29;20027;-75
2022/01/17 12:24:21;;;;;;;11.45;2.42;;;8.50;99.90;;;;;;4962121;29;20031;-77
2022/01/17 12:27:02;;;;;;;6.65;1.55;;;8.50;99.90;;;;;;4962549;29;20023;-74
2022/01/17 12:29:52;;;;;;;9.10;1.75;;;8.50;99.90;;;;;;4961413;29;20058;-75
2022/01/17 12:32:34;;;;;;;5.18;1.10;;;8.50;99.90;;;;;;4954657;28;20075;-76
2022/01/17 12:35:08;;;;;;;6.20;1.35;;;8.50;99.90;;;;;;4969348;28;20031;-77
2022/01/17 12:37:34;;;;;;;3.08;0.70;;;8.40;99.90;;;;;;4970730;28;20032;-75
2022/01/17 12:40:21;;;;;;;4.97;1.92;;;8.30;99.90;;;;;;4957040;29;20526;-77
2022/01/17 12:43:04;;;;;;;11.98;1.50;;;8.30;99.90;;;;;;4970958;28;20038;-78
2022/01/17 12:45:36;;;;;;;6.30;1.45;;;8.30;99.90;;;;;;4961869;29;20050;-78
2022/01/17 12:48:08;;;;;;;13.90;1.45;;;8.20;99.90;;;;;;4962658;29;20027;-81
2022/01/17 12:50:36;;;;;;;11.52;2.35;;;8.40;99.90;;;;;;4963626;29;20055;-79
2022/01/17 12:53:05;;;;;;;6.25;1.23;;;8.70;99.90;;;;;;4962210;29;20093;-78
2022/01/17 12:55:43;;;;;;;8.02;1.88;;;9.10;99.90;;;;;;4964642;28;20086;-77
2022/01/17 12:58:22;;;;;;;3.65;1.02;;;9.70;99.90;;;;;;4963120;29;20047;-76
2022/01/17 13:00:55;;;;;;;11.02;2.28;;;10.30;99.90;;;;;;4962721;29;20094;-75
2022/01/17 13:03:23;;;;;;;12.45;1.73;;;10.60;99.90;;;;;;4964938;28;20106;-76
2022/01/17 13:05:50;;;;;;;4.57;1.63;;;10.60;99.90;;;;;;4968171;28;20057;-79
2022/01/17 13:08:17;;;;;;;3.13;1.10;;;10.70;99.90;;;;;;4982429;28;20039;-74
2022/01/17 13:10:42;;;;;;;15.20;2.70;;;10.60;99.90;;;;;;4987481;28;20046;-75
2022/01/17 13:13:15;;;;;;;14.75;1.77;;;10.40;99.90;;;;;;4968638;28;20039;-78
2022/01/17 13:15:53;;;;;;;5.07;1.70;;;10.20;99.90;;;;;;4966516;29;20114;-82
2022/01/17 13:18:19;;;;;;;8.02;1.10;;;10.00;99.90;;;;;;4967038;29;20082;-76
2022/01/17 13:20:44;;;;;;;7.32;2.20;;;9.70;99.90;;;;;;4966322;29;20031;-82
2022/01/17 13:23:14;;;;;;;6.60;1.83;;;9.80;99.90;;;;;;4966064;29;20123;-75